Time;durP1;ratioP1;P1;durP2;ratioP2;P2;SDS_P1;SDS_P2;PMS_P1;PMS_P2;Temp;Humidity;BMP_temperature;BMP_pressure;BME280_temperature;BME280_humidity;BME280_pressure;Samples;Min_cycle;Max_cycle;Signal;HPM_P1;HPM_P2
2021/12/14 00:00:32;;;;;;;4.18;2.45;;;;;;;16.45;48.38;102499.75;4952323;29;20070;-58
2021/12/14 00:02:59;;;;;;;5.25;2.47;;;;;;;16.45;48.36;102505.16;4949583;29;20110;-58
2021/12/14 00:05:27;;;;;;;5.07;2.65;;;;;;;16.41;49.19;102498.28;4933126;29;20023;-58
2021/12/14 00:07:55;;;;;;;4.05;2.10;;;;;;;16.39;47.54;102500.25;4932720;29;20038;-58
2021/12/14 00:10:47;;;;;;;3.45;2.58;;;;;;;16.37;47.73;102496.81;4950064;29;20413;-58
2021/12/14 00:13:29;;;;;;;4.10;2.83;;;;;;;16.29;47.60;102493.88;4935142;29;20044;-58
2021/12/14 00:15:55;;;;;;;4.03;2.33;;;;;;;16.35;47.65;102498.78;4946675;29;20107;-58
2021/12/14 00:18:21;;;;;;;9.52;3.05;;;;;;;16.33;48.74;102492.66;4932381;29;20030;-57
2021/12/14 00:20:51;;;;;;;5.22;2.58;;;;;;;16.27;48.06;102487.75;4946769;29;20047;-58
2021/12/14 00:25:51;;;;;;;5.85;2.92;;;;;;;16.28;47.88;102481.31;4944862;29;20110;-58
2021/12/14 00:28:29;;;;;;;6.80;3.58;;;;;;;16.26;48.98;102483.31;4939892;29;20031;-58
2021/12/14 00:30:57;;;;;;;5.03;2.80;;;;;;;16.24;48.57;102486.16;4923276;29;20549;-58
2021/12/14 00:33:25;;;;;;;8.35;3.83;;;;;;;16.24;48.26;102490.69;4939772;29;20034;-58
2021/12/14 00:35:51;;;;;;;7.53;4.00;;;;;;;16.26;48.68;102488.72;4940035;29;20179;-58
2021/12/14 00:38:21;;;;;;;6.13;3.08;;;;;;;16.21;48.72;102469.31;4939479;29;20024;-58
2021/12/14 00:40:51;;;;;;;11.02;3.75;;;;;;;16.21;47.86;102469.31;4922323;29;20031;-59
2021/12/14 00:43:16;;;;;;;6.70;3.08;;;;;;;16.18;47.59;102483.06;4939649;29;20020;-58
2021/12/14 00:45:43;;;;;;;6.20;3.15;;;;;;;16.16;48.43;102480.47;4939669;29;20028;-58
2021/12/14 00:48:09;;;;;;;5.30;2.83;;;;;;;16.16;48.35;102487.75;4939881;29;20028;-58
2021/12/14 00:50:36;;;;;;;6.57;3.45;;;;;;;16.15;48.53;102483.31;4939532;29;20106;-58
2021/12/14 00:53:02;;;;;;;5.25;2.20;;;;;;;16.14;47.86;102492.41;4906592;29;20071;-58
2021/12/14 00:55:35;;;;;;;6.65;3.38;;;;;;;16.14;48.59;102495.97;4922859;29;20122;-58
2021/12/14 00:58:01;;;;;;;5.55;3.05;;;;;;;16.18;48.12;102488.47;4939733;29;20508;-59
2021/12/14 01:00:32;;;;;;;4.43;3.00;;;;;;;16.19;48.80;102498.31;4939367;29;20036;-58
2021/12/14 01:02:58;;;;;;;4.57;2.75;;;;;;;16.21;49.56;102508.03;4940402;29;20023;-58
2021/12/14 01:05:36;;;;;;;4.53;2.55;;;;;;;16.22;49.14;102503.47;4939431;29;20400;-57
2021/12/14 01:08:03;;;;;;;5.15;2.88;;;;;;;16.23;48.99;102500.66;4939574;29;20028;-58
2021/12/14 01:11:01;;;;;;;5.57;3.38;;;;;;;16.22;48.89;102498.03;4939496;29;20449;-58
2021/12/14 01:13:29;;;;;;;5.95;3.10;;;;;;;16.18;49.15;102502.00;4915677;29;20511;-57
2021/12/14 01:16:15;;;;;;;5.05;2.75;;;;;;;16.19;49.66;102498.31;4922394;29;20024;-58
2021/12/14 01:18:48;;;;;;;5.85;2.75;;;;;;;16.19;48.00;102503.72;4924284;29;20027;-57
2021/12/14 01:21:40;;;;;;;6.05;3.05;;;;;;;16.17;48.97;102502.97;4938882;29;20095;-58
2021/12/14 01:24:20;;;;;;;5.38;2.97;;;;;;;16.17;49.27;102500.28;4924525;29;20505;-58
2021/12/14 01:26:46;;;;;;;5.30;2.80;;;;;;;16.15;49.50;102507.66;4925101;29;20042;-58
2021/12/14 01:29:13;;;;;;;6.78;3.20;;;;;;;16.08;49.05;102506.44;4941037;29;20027;-58
2021/12/14 01:31:41;;;;;;;6.47;3.05;;;;;;;16.03;49.31;102495.13;4958244;29;20081;-58
2021/12/14 01:34:10;;;;;;;4.05;2.58;;;;;;;16.05;48.35;102512.94;4958240;29;20034;-58
2021/12/14 01:41:45;;;;;;;5.28;3.10;;;;;;;16.07;49.50;102520.94;4958217;29;20043;-58
2021/12/14 01:44:10;;;;;;;5.72;2.78;;;;;;;16.08;49.65;102512.69;4958106;29;20454;-58
2021/12/14 01:46:42;;;;;;;5.97;3.17;;;;;;;16.07;49.67;102507.41;4958078;29;20039;-59
2021/12/14 01:49:12;;;;;;;4.57;2.55;;;;;;;16.04;49.84;102513.06;4933945;29;20051;-58
2021/12/14 01:51:40;;;;;;;5.05;3.03;;;;;;;16.04;48.94;102518.47;4947211;28;20031;-58
2021/12/14 01:54:08;;;;;;;4.00;2.65;;;;;;;16.05;49.90;102536.44;4945702;29;20515;-58
2021/12/14 01:56:34;;;;;;;5.70;3.03;;;;;;;16.09;49.03;102535.19;4945964;29;20118;-57
2021/12/14 01:59:06;;;;;;;6.05;3.28;;;;;;;16.09;49.22;102513.56;4947709;29;20515;-58
2021/12/14 02:01:43;;;;;;;9.07;3.35;;;;;;;16.10;49.17;102515.28;4946696;29;20377;-58
2021/12/14 02:04:17;;;;;;;6.97;3.47;;;;;;;16.08;49.37;102517.25;4946281;29;20027;-58
2021/12/14 02:06:43;;;;;;;5.88;2.97;;;;;;;16.05;48.72;102502.13;4947908;29;20362;-58
2021/12/14 02:09:16;;;;;;;5.72;2.97;;;;;;;16.02;48.41;102490.72;4927661;29;20027;-58
2021/12/14 02:11:49;;;;;;;6.82;2.75;;;;;;;15.95;49.82;102500.28;4947357;29;20030;-58
2021/12/14 02:14:15;;;;;;;6.05;2.97;;;;;;;15.87;48.59;102482.00;4946511;29;20024;-58
2021/12/14 02:16:41;;;;;;;6.65;3.78;;;;;;;15.81;49.66;102476.19;4953810;29;20042;-58
2021/12/14 02:19:10;;;;;;;7.68;3.72;;;;;;;15.77;49.01;102462.09;4923771;29;20020;-58
2021/12/14 02:21:37;;;;;;;8.48;3.15;;;;;;;15.74;48.85;102473.97;4952314;29;20078;-58
2021/12/14 02:24:07;;;;;;;6.25;3.40;;;;;;;15.73;49.18;102477.69;4957039;29;20050;-57
2021/12/14 02:26:36;;;;;;;7.18;3.95;;;;;;;15.77;48.93;102480.16;4957025;29;20031;-58
2021/12/14 02:29:04;;;;;;;7.68;3.17;;;;;;;15.77;48.92;102475.63;4957395;29;20389;-59
2021/12/14 02:31:34;;;;;;;6.47;3.42;;;;;;;15.74;48.99;102470.44;4957209;29;20066;-58
2021/12/14 02:34:02;;;;;;;6.60;2.88;;;;;;;15.74;49.81;102459.63;4939700;29;20046;-58
2021/12/14 02:36:32;;;;;;;6.22;3.22;;;;;;;15.73;49.72;102453.38;4957076;29;20050;-58
2021/12/14 02:39:11;;;;;;;6.13;3.33;;;;;;;15.72;50.07;102446.25;4957332;29;20033;-58
2021/12/14 02:41:50;;;;;;;6.43;3.88;;;;;;;15.72;49.87;102462.44;4941773;29;20047;-58
2021/12/14 02:44:17;;;;;;;7.35;3.45;;;;;;;15.74;49.74;102462.34;4939994;29;20115;-57
2021/12/14 02:46:46;;;;;;;7.85;3.75;;;;;;;15.73;49.17;102458.78;4956944;29;20126;-58
2021/12/14 02:49:17;;;;;;;6.50;3.47;;;;;;;15.73;49.48;102441.69;4956893;29;20024;-58
2021/12/14 02:51:47;;;;;;;6.47;3.15;;;;;;;15.72;50.10;102432.72;4956683;29;20031;-58
2021/12/14 02:54:22;;;;;;;6.25;3.28;;;;;;;15.69;50.40;102424.88;4924005;29;20078;-58
2021/12/14 02:56:52;;;;;;;7.30;3.80;;;;;;;15.67;50.19;102443.06;4956836;29;20118;-58
2021/12/14 02:59:22;;;;;;;8.90;3.30;;;;;;;15.64;49.37;102443.28;4956860;29;20541;-58
2021/12/14 03:01:50;;;;;;;6.88;3.50;;;;;;;15.66;50.18;102427.81;4956185;28;20516;-57
2021/12/14 03:04:16;;;;;;;5.85;3.17;;;;;;;15.66;50.44;102426.97;4939478;29;20047;-58
2021/12/14 03:06:49;;;;;;;6.45;3.40;;;;;;;15.65;50.41;102428.81;4939607;29;20027;-59
2021/12/14 03:09:31;;;;;;;;;;;;;;;15.68;49.21;102433.09;4940067;29;20035;-59
2021/12/14 03:11:57;;;;;;;9.35;3.45;;;;;;;15.64;50.44;102437.03;4956399;29;19937;-57
2021/12/14 03:14:23;;;;;;;6.28;3.35;;;;;;;15.65;50.77;102442.31;4956048;29;20048;-58
2021/12/14 03:16:48;;;;;;;4.20;2.60;;;;;;;15.65;49.63;102438.75;4956144;29;20051;-58
2021/12/14 03:19:13;;;;;;;5.53;2.90;;;;;;;15.64;50.21;102446.00;4956736;29;20039;-59
2021/12/14 03:21:45;;;;;;;8.32;3.25;;;;;;;15.65;50.83;102444.16;4939050;29;20047;-57
2021/12/14 03:24:13;;;;;;;5.38;2.80;;;;;;;15.67;49.07;102443.06;4956690;29;20036;-58
2021/12/14 03:26:42;;;;;;;5.90;2.67;;;;;;;15.67;50.04;102448.44;4956822;29;20031;-58
2021/12/14 03:29:12;;;;;;;5.00;2.83;;;;;;;15.67;51.04;102436.78;4956406;29;20468;-58
2021/12/14 03:31:43;;;;;;;4.88;2.67;;;;;;;15.68;50.48;102444.78;4956433;29;20031;-58
2021/12/14 03:34:22;;;;;;;4.97;2.83;;;;;;;15.68;50.76;102433.09;4939267;29;20456;-58
2021/12/14 03:36:54;;;;;;;4.55;2.55;;;;;;;15.66;49.63;102435.09;4956305;29;20023;-58
2021/12/14 03:39:26;;;;;;;6.47;2.85;;;;;;;15.63;49.95;102436.16;4956212;29;20362;-57
2021/12/14 03:41:58;;;;;;;5.07;2.95;;;;;;;15.63;51.15;102436.16;4956334;29;20028;-58
2021/12/14 03:44:25;;;;;;;7.65;3.60;;;;;;;15.66;49.46;102441.31;4956188;29;20027;-58
2021/12/14 03:46:59;;;;;;;8.85;3.30;;;;;;;15.66;50.10;102435.09;4955740;29;20058;-59
2021/12/14 03:49:28;;;;;;;4.28;2.95;;;;;;;15.63;50.84;102430.75;4938608;29;20034;-58
2021/12/14 03:51:54;;;;;;;7.68;3.20;;;;;;;15.63;49.53;102430.75;4939294;29;20043;-57
2021/12/14 03:54:19;;;;;;;7.25;3.42;;;;;;;15.64;49.64;102421.69;4956315;29;20043;-58
2021/12/14 03:56:47;;;;;;;5.32;3.10;;;;;;;15.64;50.09;102421.69;4938960;29;20031;-58
2021/12/14 03:59:12;;;;;;;5.60;3.25;;;;;;;15.64;50.55;102421.69;4938554;29;20110;-58
2021/12/14 04:01:40;;;;;;;5.00;3.25;;;;;;;15.65;50.45;102401.81;4956089;29;20178;-58
2021/12/14 04:04:44;;;;;;;8.30;3.53;;;;;;;15.68;50.26;102411.50;4956146;29;20027;-58
2021/12/14 04:07:12;;;;;;;5.68;3.00;;;;;;;15.69;50.06;102434.81;4926602;29;20122;-59
2021/12/14 04:09:39;;;;;;;5.55;3.45;;;;;;;15.70;50.17;102436.53;4955817;29;20042;-58
2021/12/14 04:12:06;;;;;;;7.80;2.92;;;;;;;15.71;50.53;102439.13;4938819;29;20058;-58
2021/12/14 04:14:32;;;;;;;4.88;3.08;;;;;;;15.72;50.69;102431.88;4940037;29;20047;-58
2021/12/14 04:16:59;;;;;;;4.57;3.03;;;;;;;15.73;50.14;102429.06;4942555;29;20027;-58
2021/12/14 04:19:28;;;;;;;6.22;3.03;;;;;;;15.71;50.36;102425.63;4942056;29;20027;-58
2021/12/14 04:21:58;;;;;;;6.10;3.05;;;;;;;15.72;51.19;102427.31;4942442;29;20046;-58
2021/12/14 04:24:26;;;;;;;7.47;2.83;;;;;;;15.69;50.12;102441.06;4959407;29;20106;-57
2021/12/14 04:26:53;;;;;;;5.93;2.50;;;;;;;15.74;50.97;102454.25;4942429;29;20030;-58
2021/12/14 04:29:19;;;;;;;6.13;2.55;;;;;;;15.73;51.15;102452.50;4926238;29;20038;-58
2021/12/14 04:31:45;;;;;;;8.65;2.95;;;;;;;15.73;49.69;102469.59;4958975;29;20035;-58
2021/12/14 04:34:11;;;;;;;5.47;2.88;;;;;;;15.73;50.99;102469.59;4959338;29;20044;-58
2021/12/14 04:36:39;;;;;;;5.72;3.05;;;;;;;15.73;51.03;102472.28;4958987;29;20147;-58
2021/12/14 04:53:02;;;;;;;6.50;2.55;;;;;;;15.63;49.64;102463.16;4958985;29;20066;-58
2021/12/14 04:55:28;;;;;;;6.63;3.22;;;;;;;15.62;50.07;102458.78;4958898;29;20031;-58
2021/12/14 04:57:53;;;;;;;7.65;3.35;;;;;;;15.50;50.13;102431.84;4926222;29;20085;-57
2021/12/14 05:00:24;;;;;;;4.65;2.80;;;;;;;15.61;50.45;102457.03;4958896;29;20085;-58
2021/12/14 05:02:51;;;;;;;4.97;2.85;;;;;;;15.60;50.60;102458.03;4958616;29;20027;-58
2021/12/14 05:05:21;;;;;;;6.88;2.50;;;;;;;15.62;51.19;102466.88;4925809;29;20035;-58
2021/12/14 05:11:07;;;;;;;5.03;2.30;;;;;;;15.60;50.82;102455.34;4926295;29;20039;-58
2021/12/14 05:13:44;;;;;;;4.18;2.50;;;;;;;15.65;51.42;102465.78;4958784;29;20050;-58
2021/12/14 05:16:16;;;;;;;3.78;2.53;;;;;;;15.62;49.82;102461.47;4941442;28;20123;-58
2021/12/14 05:18:51;;;;;;;5.57;2.50;;;;;;;15.64;50.05;102456.81;4958440;29;20027;-58
2021/12/14 05:21:29;;;;;;;7.35;2.80;;;;;;;15.66;49.66;102457.53;4958272;29;20070;-58
2021/12/14 05:23:55;;;;;;;6.88;3.03;;;;;;;15.67;51.14;102453.84;4958493;29;20019;-58
2021/12/14 05:26:21;;;;;;;6.35;2.65;;;;;;;15.66;50.85;102457.53;4958023;28;20027;-58
2021/12/14 05:28:47;;;;;;;6.15;2.67;;;;;;;15.67;51.20;102456.56;4941455;29;20400;-58
2021/12/14 05:31:13;;;;;;;3.78;2.33;;;;;;;15.67;50.72;102459.25;4958335;29;20055;-58
2021/12/14 05:33:39;;;;;;;5.65;3.30;;;;;;;15.68;51.14;102461.00;4941035;29;20035;-58
2021/12/14 05:36:12;;;;;;;5.38;2.53;;;;;;;15.67;50.80;102467.38;4958324;28;20507;-58
2021/12/14 05:39:07;;;;;;;3.60;1.95;;;;;;;15.66;49.66;102468.34;4926010;29;20027;-58
2021/12/14 05:44:21;;;;;;;6.22;3.15;;;;;;;15.62;50.13;102449.81;4943578;29;20026;-58
2021/12/14 05:46:50;;;;;;;5.05;3.17;;;;;;;15.48;50.06;102429.28;4941005;29;20023;-58
2021/12/14 05:49:18;;;;;;;5.18;2.95;;;;;;;15.60;51.40;102446.38;4957980;29;20023;-58
2021/12/14 05:51:44;;;;;;;5.53;3.10;;;;;;;15.60;51.25;102443.66;4957750;29;20038;-58
2021/12/14 05:54:09;;;;;;;5.30;3.17;;;;;;;15.60;50.92;102440.97;4958346;29;20147;-57
2021/12/14 05:56:35;;;;;;;5.18;2.90;;;;;;;15.53;50.15;102435.19;4957903;29;20058;-58
2021/12/14 05:59:03;;;;;;;5.95;2.95;;;;;;;15.50;50.42;102435.44;4940305;29;20117;-58
2021/12/14 06:01:31;;;;;;;7.70;3.08;;;;;;;15.46;51.26;102436.66;4940325;29;20081;-58
2021/12/14 06:04:05;;;;;;;4.97;2.90;;;;;;;15.37;50.45;102429.25;4957585;29;20085;-58
2021/12/14 06:06:35;;;;;;;5.95;3.40;;;;;;;15.33;50.58;102433.16;4957802;29;20118;-58
2021/12/14 06:09:11;;;;;;;5.97;3.03;;;;;;;15.31;50.06;102439.66;4957792;29;20539;-57
2021/12/14 06:11:37;;;;;;;6.35;3.08;;;;;;;15.29;50.56;102441.63;4957498;29;20085;-58
2021/12/14 06:14:03;;;;;;;6.43;3.33;;;;;;;15.28;51.47;102440.75;4940304;29;20031;-58
2021/12/14 06:16:35;;;;;;;7.88;3.40;;;;;;;15.28;51.36;102439.91;4957441;29;20050;-58
2021/12/14 06:19:22;;;;;;;8.13;3.83;;;;;;;15.27;51.38;102433.63;4939984;29;20484;-57
2021/12/14 06:21:54;;;;;;;7.00;3.95;;;;;;;15.25;50.54;102440.13;4956957;29;20058;-58
2021/12/14 06:24:23;;;;;;;9.35;4.07;;;;;;;15.28;51.46;102464.19;4940199;29;20560;-58
2021/12/14 06:26:52;;;;;;;6.35;3.03;;;;;;;15.31;50.21;102461.25;4956840;29;20034;-57
2021/12/14 06:29:23;;;;;;;5.43;3.65;;;;;;;15.31;50.48;102459.44;4956640;29;20027;-58
2021/12/14 06:31:50;;;;;;;8.48;3.80;;;;;;;15.34;51.44;102461.88;4939808;29;20027;-57
2021/12/14 06:34:20;;;;;;;6.65;4.07;;;;;;;15.38;51.50;102457.94;4957302;29;20437;-58
2021/12/14 06:36:47;;;;;;;8.98;4.63;;;;;;;15.40;50.15;102450.63;4940204;29;20086;-58
2021/12/14 06:39:13;;;;;;;9.57;4.30;;;;;;;15.40;50.70;102450.63;4956804;29;20051;-58
2021/12/14 06:41:38;;;;;;;9.38;3.92;;;;;;;15.40;51.31;102464.13;4957199;29;20477;-59
2021/12/14 06:44:04;;;;;;;10.68;3.08;;;;;;;15.42;49.98;102475.66;4956915;29;20035;-58
2021/12/14 06:46:33;;;;;;;6.88;3.55;;;;;;;15.43;50.20;102463.88;4956597;29;20035;-58
2021/12/14 06:49:08;;;;;;;6.93;3.33;;;;;;;15.43;51.55;102466.59;4956603;29;20167;-58
2021/12/14 06:51:39;;;;;;;7.72;3.40;;;;;;;15.42;50.00;102472.09;4956793;29;20023;-58
2021/12/14 06:54:08;;;;;;;7.38;3.78;;;;;;;15.41;51.24;102463.13;4939959;29;20176;-58
2021/12/14 06:56:34;;;;;;;7.40;3.42;;;;;;;15.41;51.31;102473.91;4956510;29;20146;-58
2021/12/14 06:59:04;;;;;;;6.85;4.03;;;;;;;15.40;50.14;102472.22;4956700;29;20035;-58
2021/12/14 07:01:38;;;;;;;7.68;3.65;;;;;;;15.38;51.14;102474.16;4939640;29;20423;-58
2021/12/14 07:04:07;;;;;;;8.07;3.95;;;;;;;15.42;50.38;102481.06;4957129;29;20027;-58
2021/12/14 07:06:37;;;;;;;10.75;3.50;;;;;;;15.40;49.76;102477.63;4956756;29;20031;-58
2021/12/14 07:09:09;;;;;;;8.50;4.05;;;;;;;15.42;49.98;102491.84;4956538;29;20019;-57
2021/12/14 07:11:35;;;;;;;8.07;4.43;;;;;;;15.44;49.88;102497.97;4957004;29;20106;-57
2021/12/14 07:14:05;;;;;;;7.65;4.38;;;;;;;15.42;51.42;102489.16;4956919;29;20158;-58
2021/12/14 07:16:37;;;;;;;7.05;3.42;;;;;;;15.46;51.13;102492.47;4956567;29;20050;-58
2021/12/14 07:19:05;;;;;;;7.85;3.80;;;;;;;15.43;50.74;102488.19;4939970;29;20388;-58
2021/12/14 07:21:35;;;;;;;7.65;3.22;;;;;;;15.43;51.18;102492.72;4956323;29;20055;-58
2021/12/14 07:24:20;;;;;;;7.78;3.83;;;;;;;15.44;51.14;102494.41;4955893;29;20027;-58
2021/12/14 07:26:46;;;;;;;6.60;3.47;;;;;;;15.45;50.16;102501.56;4956223;28;20042;-58
2021/12/14 07:29:11;;;;;;;8.93;3.55;;;;;;;15.44;51.48;102511.50;4955948;29;20110;-58
2021/12/14 07:31:41;;;;;;;6.28;2.83;;;;;;;15.44;51.47;102511.50;4956792;29;20042;-58
2021/12/14 07:34:06;;;;;;;9.45;4.07;;;;;;;15.46;50.56;102515.00;4956416;29;20034;-58
2021/12/14 07:36:35;;;;;;;6.43;3.03;;;;;;;15.48;49.97;102512.16;4956606;29;20059;-58
2021/12/14 07:39:06;;;;;;;8.52;4.25;;;;;;;15.47;49.96;102510.41;4939241;29;20027;-57
2021/12/14 07:41:58;;;;;;;6.68;3.33;;;;;;;15.49;51.22;102525.56;4956287;29;20388;-58
2021/12/14 07:44:26;;;;;;;6.03;3.40;;;;;;;15.48;50.90;102521.13;4946326;29;20034;-58
2021/12/14 07:46:52;;;;;;;6.38;3.47;;;;;;;15.49;49.69;102522.84;4946396;29;20019;-59
2021/12/14 07:49:26;;;;;;;7.40;3.33;;;;;;;15.49;51.27;102528.25;4954466;28;20492;-58
2021/12/14 07:51:56;;;;;;;8.77;4.22;;;;;;;15.49;50.71;102538.19;4945452;29;20028;-58
2021/12/14 07:54:29;;;;;;;7.55;3.70;;;;;;;15.49;51.22;102546.28;4923938;29;20508;-58
2021/12/14 07:57:02;;;;;;;8.65;3.30;;;;;;;15.48;50.11;102556.22;4924040;29;20114;-58
2021/12/14 07:59:36;;;;;;;;;;;;;;;15.49;49.87;102552.56;4941328;29;20031;-58
2021/12/14 08:02:15;;;;;;;6.78;3.58;;;;;;;15.51;50.02;102561.41;4940837;29;19910;-59
2021/12/14 08:05:01;;;;;;;7.88;3.80;;;;;;;15.53;51.12;102575.63;4940673;29;20019;-59
2021/12/14 08:07:34;;;;;;;8.35;3.90;;;;;;;15.54;50.98;102569.28;4940700;29;20023;-58
2021/12/14 08:10:14;;;;;;;8.23;4.07;;;;;;;15.57;50.05;102571.75;4940475;29;20413;-59
2021/12/14 08:12:43;;;;;;;9.82;4.38;;;;;;;15.56;51.26;102574.53;4940826;29;20031;-59
2021/12/14 08:15:14;;;;;;;9.25;3.95;;;;;;;15.53;50.81;102563.97;4948350;29;20483;-58
2021/12/14 08:17:41;;;;;;;10.20;4.47;;;;;;;15.55;51.29;102572.84;4957277;29;20110;-58
2021/12/14 08:20:10;;;;;;;12.98;4.78;;;;;;;15.54;50.22;102582.78;4959356;29;20051;-58
2021/12/14 08:22:38;;;;;;;8.15;3.75;;;;;;;15.55;49.66;102584.47;4959682;29;20038;-58
2021/12/14 08:25:07;;;;;;;13.23;4.72;;;;;;;15.55;51.09;102589.88;4942303;29;20031;-58
2021/12/14 08:27:32;;;;;;;10.55;4.78;;;;;;;15.57;50.25;102587.94;4959679;29;20035;-57
2021/12/14 08:30:00;;;;;;;9.65;4.47;;;;;;;15.59;50.15;102590.50;4942193;29;20032;-58
2021/12/14 08:32:33;;;;;;;9.63;5.15;;;;;;;15.61;50.57;102597.50;4953240;29;20035;-58
2021/12/14 08:35:00;;;;;;;9.40;4.32;;;;;;;15.62;51.10;102591.16;4958802;29;20031;-59
2021/12/14 08:37:30;;;;;;;9.48;4.65;;;;;;;15.61;50.58;102581.31;4959070;29;20031;-57
2021/12/14 08:40:04;;;;;;;10.10;4.88;;;;;;;15.64;50.98;102578.38;4959398;29;20023;-58
2021/12/14 08:42:40;;;;;;;10.23;4.93;;;;;;;15.63;51.16;102581.19;4942141;29;20027;-59
2021/12/14 08:45:26;;;;;;;8.65;4.30;;;;;;;15.65;50.00;102582.81;4959050;29;20074;-58
2021/12/14 08:48:07;;;;;;;10.52;4.50;;;;;;;15.65;50.32;102572.00;4942880;29;20082;-57
2021/12/14 08:50:38;;;;;;;9.45;4.47;;;;;;;15.65;51.33;102574.69;4958963;29;20083;-58
2021/12/14 08:53:08;;;;;;;13.52;5.07;;;;;;;15.66;49.85;102581.81;4958484;29;20393;-58
2021/12/14 08:55:36;;;;;;;11.80;4.93;;;;;;;15.66;50.96;102579.09;4958588;29;20032;-57
2021/12/14 08:58:03;;;;;;;9.60;4.82;;;;;;;15.67;49.39;102578.13;4958871;29;20481;-59
2021/12/14 09:00:38;;;;;;;10.60;4.68;;;;;;;15.66;51.26;102571.00;4957874;28;20037;-58
2021/12/14 09:03:06;;;;;;;12.10;4.85;;;;;;;15.71;49.69;102581.47;4958883;29;20043;-58
2021/12/14 09:05:40;;;;;;;9.23;4.53;;;;;;;15.73;49.92;102574.97;4958276;29;20082;-58
2021/12/14 09:08:06;;;;;;;9.60;4.32;;;;;;;15.71;49.73;102579.63;4958489;29;20480;-59
2021/12/14 09:10:35;;;;;;;11.55;5.95;;;;;;;15.73;49.69;102577.66;4958909;29;20034;-58
2021/12/14 09:13:05;;;;;;;10.55;5.38;;;;;;;15.73;49.89;102572.25;4958526;29;20110;-58
2021/12/14 09:15:38;;;;;;;9.48;4.68;;;;;;;15.78;50.04;102585.41;4925510;29;20027;-57
2021/12/14 09:18:04;;;;;;;11.50;5.28;;;;;;;15.79;51.05;102580.84;4958183;29;20027;-58
2021/12/14 09:20:37;;;;;;;12.38;6.78;;;;;;;15.79;49.83;102581.72;4938237;29;20054;-59
2021/12/14 09:23:08;;;;;;;12.23;4.85;;;;;;;15.80;49.56;102588.84;4939219;28;20477;-58
2021/12/14 09:25:35;;;;;;;13.35;4.88;;;;;;;15.82;50.99;102575.22;4922208;29;20034;-58
2021/12/14 09:28:01;;;;;;;12.05;5.22;;;;;;;15.85;49.40;102585.78;4938766;29;20059;-58
2021/12/14 09:30:30;;;;;;;11.13;5.85;;;;;;;15.85;50.90;102586.66;4939019;28;20039;-58
2021/12/14 09:32:55;;;;;;;9.40;4.70;;;;;;;15.87;49.64;102583.81;4939071;28;20031;-58
2021/12/14 09:35:24;;;;;;;10.48;5.22;;;;;;;15.86;50.72;102582.09;4937767;29;20043;-57
2021/12/14 09:37:52;;;;;;;12.27;5.60;;;;;;;15.87;50.17;102594.63;4939263;29;20028;-59
2021/12/14 09:40:46;;;;;;;9.75;4.85;;;;;;;15.88;50.77;102591.81;4938714;29;20031;-58
2021/12/14 09:43:12;;;;;;;11.95;4.93;;;;;;;15.89;49.54;102593.53;4936583;29;20032;-58
2021/12/14 09:45:44;;;;;;;9.02;5.13;;;;;;;15.89;49.92;102598.94;4939006;29;20370;-58
2021/12/14 09:48:28;;;;;;;11.03;5.40;;;;;;;15.93;50.85;102596.84;4938736;28;20111;-58
2021/12/14 09:50:57;;;;;;;10.45;4.82;;;;;;;15.96;50.38;102599.31;4938792;29;20034;-58
2021/12/14 09:53:26;;;;;;;13.48;5.15;;;;;;;16.02;50.35;102593.44;4938926;28;20466;-58
2021/12/14 09:55:52;;;;;;;12.02;5.07;;;;;;;16.04;49.17;102589.63;4937348;28;20485;-58
2021/12/14 09:58:30;;;;;;;14.13;5.05;;;;;;;16.05;50.70;102587.78;4938602;29;20041;-57
2021/12/14 10:01:17;;;;;;;10.95;4.72;;;;;;;16.08;49.05;102582.97;4937582;29;20401;-58
2021/12/14 10:03:44;;;;;;;11.85;4.70;;;;;;;16.13;49.40;102593.44;4938677;29;20015;-58
2021/12/14 10:06:14;;;;;;;12.45;5.95;;;;;;;16.12;49.03;102594.41;4938438;28;20083;-58
2021/12/14 10:08:45;;;;;;;7.75;4.63;;;;;;;16.14;50.55;102592.44;4921537;29;20028;-58
2021/12/14 10:11:24;;;;;;;8.52;4.80;;;;;;;16.16;49.55;102593.19;4936826;28;20027;-58
2021/12/14 10:13:51;;;;;;;13.13;5.25;;;;;;;16.16;50.43;102590.50;4936896;28;20030;-57
2021/12/14 10:16:17;;;;;;;11.00;4.45;;;;;;;16.22;50.69;102607.06;4938367;29;20031;-59
2021/12/14 10:18:49;;;;;;;10.23;5.15;;;;;;;16.25;50.23;102608.66;4938439;29;20035;-58
2021/12/14 10:21:36;;;;;;;10.45;5.60;;;;;;;16.22;49.63;102600.81;4952049;29;20134;-58
2021/12/14 10:24:05;;;;;;;9.70;4.93;;;;;;;16.19;50.50;102601.91;4957728;29;20358;-58
2021/12/14 10:26:31;;;;;;;9.18;4.25;;;;;;;16.23;50.52;102614.22;4957619;29;20023;-58
2021/12/14 10:28:59;;;;;;;13.27;5.43;;;;;;;16.22;49.69;102601.66;4957216;29;20496;-58
2021/12/14 10:31:41;;;;;;;13.23;5.38;;;;;;;16.22;50.58;102598.09;4957298;29;20079;-59
2021/12/14 10:34:16;;;;;;;11.02;5.03;;;;;;;16.20;50.25;102603.63;4957327;29;20110;-58
2021/12/14 10:36:46;;;;;;;9.80;4.43;;;;;;;16.15;50.41;102595.03;4957407;29;20526;-58
2021/12/14 10:44:54;;;;;;;10.13;5.55;;;;;;;16.25;49.04;102595.16;4957252;29;20026;-58
2021/12/14 10:47:24;;;;;;;10.02;4.40;;;;;;;16.28;50.19;102600.31;4957197;29;20035;-58
2021/12/14 10:49:51;;;;;;;9.23;4.95;;;;;;;16.28;48.92;102594.91;4956966;29;20078;-58
2021/12/14 10:52:20;;;;;;;9.85;5.07;;;;;;;16.30;50.22;102604.63;4956930;29;20432;-58
2021/12/14 10:54:49;;;;;;;10.65;5.22;;;;;;;16.33;50.47;102600.84;4923912;29;20485;-57
2021/12/14 10:57:18;;;;;;;9.35;4.85;;;;;;;16.35;49.99;102596.16;4957031;29;20491;-58
2021/12/14 10:59:47;;;;;;;14.02;6.38;;;;;;;16.38;50.14;102593.19;4940045;29;20023;-58
2021/12/14 11:02:13;;;;;;;12.65;5.72;;;;;;;16.45;50.52;102598.97;4957888;29;20027;-59
2021/12/14 11:04:53;;;;;;;12.43;5.53;;;;;;;16.48;49.03;102594.16;4958319;29;20024;-60
2021/12/14 11:07:24;;;;;;;12.38;5.82;;;;;;;16.51;50.29;102595.75;4958971;29;20019;-60
2021/12/14 11:09:53;;;;;;;12.88;5.72;;;;;;;16.51;49.85;102585.81;4956510;29;20027;-60
2021/12/14 11:12:18;;;;;;;13.15;5.63;;;;;;;16.58;48.83;102592.47;4940292;29;20051;-61
2021/12/14 11:14:44;;;;;;;12.68;5.00;;;;;;;16.57;49.49;102585.34;4956616;29;20030;-60
2021/12/14 11:20:14;;;;;;;12.50;5.50;;;;;;;16.68;49.02;102587.16;4942120;29;20057;-60
2021/12/14 11:22:53;;;;;;;12.68;5.43;;;;;;;16.66;50.02;102576.50;4956452;29;20024;-60
2021/12/14 11:25:24;;;;;;;18.88;6.05;;;;;;;16.69;48.77;102578.94;4956958;29;20036;-60
2021/12/14 11:28:00;;;;;;;10.00;5.63;;;;;;;16.78;49.70;102577.28;4956992;29;20047;-60
2021/12/14 11:30:36;;;;;;;11.55;4.97;;;;;;;16.84;48.50;102580.38;4957256;29;20032;-60
2021/12/14 11:33:10;;;;;;;8.27;5.00;;;;;;;16.91;49.99;102582.56;4958413;29;20043;-60
2021/12/14 11:35:57;;;;;;;14.68;6.13;;;;;;;16.96;49.51;102569.50;4958762;29;20042;-60
2021/12/14 11:38:31;;;;;;;9.82;4.70;;;;;;;17.01;48.46;102561.84;4958384;29;20110;-60
2021/12/14 11:41:00;;;;;;;11.23;5.63;;;;;;;17.06;48.86;102559.63;4958845;29;20023;-60
2021/12/14 11:43:28;;;;;;;13.93;6.03;;;;;;;17.08;49.54;102553.13;4958395;29;20019;-60
2021/12/14 11:45:54;;;;;;;13.20;5.97;;;;;;;17.14;48.63;102546.31;4958884;29;20400;-61
2021/12/14 11:48:33;;;;;;;12.18;6.18;;;;;;;17.15;49.32;102548.03;4941973;29;20042;-60
2021/12/14 11:51:00;;;;;;;10.10;4.97;;;;;;;17.16;49.50;102538.91;4958613;29;20023;-60
2021/12/14 11:53:26;;;;;;;9.60;5.05;;;;;;;17.18;49.78;102542.34;4958450;28;20035;-61
2021/12/14 11:55:51;;;;;;;9.93;5.15;;;;;;;17.17;50.05;102552.31;4958347;29;20435;-60
2021/12/14 11:58:25;;;;;;;12.85;5.47;;;;;;;17.18;48.57;102559.47;4958449;29;20059;-60
2021/12/14 12:00:56;;;;;;;13.25;5.57;;;;;;;17.21;48.77;102561.03;4957852;29;20528;-60
2021/12/14 12:03:34;;;;;;;12.00;6.25;;;;;;;17.25;48.78;102562.53;4958459;29;20098;-60
2021/12/14 12:06:07;;;;;;;12.23;5.53;;;;;;;17.29;48.89;102558.53;4958019;29;20078;-60
2021/12/14 12:11:18;;;;;;;12.10;5.55;;;;;;;17.34;48.16;102550.88;4943746;29;19938;-60
2021/12/14 12:13:45;;;;;;;10.38;5.25;;;;;;;17.36;49.05;102557.88;4958303;29;20023;-60
2021/12/14 12:16:22;;;;;;;15.10;6.20;;;;;;;17.37;48.93;102553.31;4957873;29;20094;-60
2021/12/14 12:19:14;;;;;;;9.55;5.43;;;;;;;17.38;48.73;102555.06;4958107;29;20099;-60